Terminal Aerodrome Forecast
Issued by NWS Newport/Morehead City, NC

Home | Current Version | Previous Version | Text Only | Print | Product List | Glossary Off
Versions: 1 2 3 4 5 6 7 8 9 10 11 12 13 14 15 16 17 18 19

000
FTUS42 KMHX 271250 AAA
TAFEWN
TAF AMD
KEWN 271250Z 2713/2812 04010KT P6SM VCTS SCT010 BKN025 OVC050CB
      TEMPO 2713/2714 VRB15KT 2SM +SHRA BKN015
     FM271600 06008KT P6SM VCSH SCT025 BKN040
     FM280600 02006KT P6SM SCT015=

USA.gov is the U.S. government's official web portal to all federal, state and local government web resources and services.